Free0maverick — A8GH3 — position and weather

sailwx.info

Track history (hours):
 
Tides and Currents Weather Stations Pressure Air Temp Water Temp Dewpoint Dewpoint Depression Visibility Wind Speed Wind Dir Waves Ship Positions

Free0maverick

Last reported at 2017-Sep-04 16:25 UTC. Time now 2017-Sep-21 17:45 UTC.
Position N 09°37' W 079°45'.
Warning: this ship's position is 17 days out of date.

Length 169 m.

Type: Cargo ship. MMSI: 636013999.

Date/timePositionNaut miles runAvg speedWind from/ knotsBaromVisibWave heightAir tempDewpointWater temp
2017-Sep-04 16:25N 09°37' W 079°45'513.4
2017-Sep-04 16:01N 09°33' W 079°49'611.6
2017-Sep-04 15:31N 09°29' W 079°53'510.6
2017-Sep-04 15:01N 09°24' W 079°55'3 6.7
2017-Sep-04 14:31N 09°21' W 079°55'3 6.3
2017-Sep-04 14:01N 09°17' W 079°55'1 1.9
2017-Sep-04 13:31N 09°17' W 079°55'0 0.7
2017-Sep-04 13:01N 09°16' W 079°55'0 0.7
2017-Sep-04 12:31N 09°16' W 079°55'2 4.0
2017-Sep-04 12:00N 09°14' W 079°55'5 9.8
2017-Sep-04 11:30N 09°11' W 079°51'  
2017-Aug-31 05:03N 08°51' W 079°31'0 0.1
2017-Aug-31 04:57N 08°51' W 079°31'  
Track history (hours):
 
Tides and Currents Weather Stations Pressure Air Temp Water Temp Dewpoint Dewpoint Depression Visibility Wind Speed Wind Dir Waves Ship Positions

Free0maverick

Last reported at 2017-Sep-04 16:25 UTC. Time now 2017-Sep-21 17:45 UTC.
Position N 09°37' W 079°45'.
Warning: this ship's position is 17 days out of date.

Length 169 m.

Type: Cargo ship. MMSI: 636013999.

Date/timePositionNaut miles runAvg speedWind from/ knotsBaromVisibWave heightAir tempDewpointWater temp
2017-Sep-04 16:25N 09°37' W 079°45'513.4
2017-Sep-04 16:01N 09°33' W 079°49'611.6
2017-Sep-04 15:31N 09°29' W 079°53'510.6
2017-Sep-04 15:01N 09°24' W 079°55'3 6.7
2017-Sep-04 14:31N 09°21' W 079°55'3 6.3
2017-Sep-04 14:01N 09°17' W 079°55'1 1.9
2017-Sep-04 13:31N 09°17' W 079°55'0 0.7
2017-Sep-04 13:01N 09°16' W 079°55'0 0.7
2017-Sep-04 12:31N 09°16' W 079°55'2 4.0
2017-Sep-04 12:00N 09°14' W 079°55'5 9.8
2017-Sep-04 11:30N 09°11' W 079°51'  
2017-Aug-31 05:03N 08°51' W 079°31'0 0.1
2017-Aug-31 04:57N 08°51' W 079°31'  

Dump ship's entire track history